Terminal Aerodrome Forecast
Issued by NWS

Home | Current Version | Previous Version | Text Only | Print | Product List | Glossary On
Versions: 1 2 3 4 5 6 7 8 9 10 11 12 13 14 15 16 17 18 19
000
FTUS45 KFGZ 210500
TAFGCN
TAF
KGCN 210527Z 2106/2206 VRB03KT P6SM FEW120
     FM211800 21012G22KT P6SM SCT110 BKN140
     FM220200 VRB03KT P6SM SCT120=

USA.gov is the U.S. government's official web portal to all federal, state and local government web resources and services.